sensor_id;sensor_type;location;lat;lon;timestamp;temperature;humidity
3488;DHT22;38546;48.170;11.724;2023-12-22T00:01:57;5.10;99.90
3488;DHT22;38546;48.170;11.724;2023-12-22T00:04:47;4.90;99.90
3488;DHT22;38546;48.170;11.724;2023-12-22T00:07:41;4.60;99.90
3488;DHT22;38546;48.170;11.724;2023-12-22T00:10:34;4.50;99.90
3488;DHT22;38546;48.170;11.724;2023-12-22T00:13:26;4.20;99.90
3488;DHT22;38546;48.170;11.724;2023-12-22T00:16:15;3.80;99.90
3488;DHT22;38546;48.170;11.724;2023-12-22T00:19:21;3.30;99.90
3488;DHT22;38546;48.170;11.724;2023-12-22T00:22:13;2.80;99.90
3488;DHT22;38546;48.170;11.724;2023-12-22T00:25:05;2.40;99.90
3488;DHT22;38546;48.170;11.724;2023-12-22T00:27:56;2.30;99.90
3488;DHT22;38546;48.170;11.724;2023-12-22T00:30:45;2.10;99.90
3488;DHT22;38546;48.170;11.724;2023-12-22T00:33:34;2.10;99.90
3488;DHT22;38546;48.170;11.724;2023-12-22T00:36:25;2.00;99.90
3488;DHT22;38546;48.170;11.724;2023-12-22T00:39:14;2.00;99.90
3488;DHT22;38546;48.170;11.724;2023-12-22T00:42:04;2.10;99.90
3488;DHT22;38546;48.170;11.724;2023-12-22T00:44:57;2.20;99.90
3488;DHT22;38546;48.170;11.724;2023-12-22T00:47:47;2.20;99.90
3488;DHT22;38546;48.170;11.724;2023-12-22T00:50:42;2.30;99.90
3488;DHT22;38546;48.170;11.724;2023-12-22T00:53:31;2.50;99.90
3488;DHT22;38546;48.170;11.724;2023-12-22T00:56:20;2.40;99.90
3488;DHT22;38546;48.170;11.724;2023-12-22T00:59:09;2.50;99.90
3488;DHT22;38546;48.170;11.724;2023-12-22T01:01:58;2.50;99.90
3488;DHT22;38546;48.170;11.724;2023-12-22T01:04:47;2.50;99.90
3488;DHT22;38546;48.170;11.724;2023-12-22T01:07:37;2.50;99.90
3488;DHT22;38546;48.170;11.724;2023-12-22T01:10:26;2.60;99.90
3488;DHT22;38546;48.170;11.724;2023-12-22T01:13:15;2.70;99.90
3488;DHT22;38546;48.170;11.724;2023-12-22T01:16:04;2.80;99.90
3488;DHT22;38546;48.170;11.724;2023-12-22T01:18:54;2.70;99.90
3488;DHT22;38546;48.170;11.724;2023-12-22T01:21:48;2.80;99.90
3488;DHT22;38546;48.170;11.724;2023-12-22T01:24:42;2.70;99.90
3488;DHT22;38546;48.170;11.724;2023-12-22T01:27:33;2.80;99.90
3488;DHT22;38546;48.170;11.724;2023-12-22T01:30:22;2.80;99.90
3488;DHT22;38546;48.170;11.724;2023-12-22T01:33:11;2.80;99.90
3488;DHT22;38546;48.170;11.724;2023-12-22T01:36:00;2.70;99.90
3488;DHT22;38546;48.170;11.724;2023-12-22T01:38:49;2.80;99.90
3488;DHT22;38546;48.170;11.724;2023-12-22T01:41:38;2.80;99.90
3488;DHT22;38546;48.170;11.724;2023-12-22T01:44:31;2.80;99.90
3488;DHT22;38546;48.170;11.724;2023-12-22T01:47:20;2.80;99.90
3488;DHT22;38546;48.170;11.724;2023-12-22T01:50:10;2.80;99.90
3488;DHT22;38546;48.170;11.724;2023-12-22T01:53:00;2.90;99.90
3488;DHT22;38546;48.170;11.724;2023-12-22T01:55:54;2.90;99.90
3488;DHT22;38546;48.170;11.724;2023-12-22T01:58:44;2.80;99.90
3488;DHT22;38546;48.170;11.724;2023-12-22T02:01:35;2.70;99.90
3488;DHT22;38546;48.170;11.724;2023-12-22T02:04:31;2.60;99.90
3488;DHT22;38546;48.170;11.724;2023-12-22T02:07:24;2.60;99.90
3488;DHT22;38546;48.170;11.724;2023-12-22T02:10:15;2.70;99.90
3488;DHT22;38546;48.170;11.724;2023-12-22T02:13:09;2.70;99.90
3488;DHT22;38546;48.170;11.724;2023-12-22T02:16:05;2.70;99.90
3488;DHT22;38546;48.170;11.724;2023-12-22T02:19:21;2.60;99.90
3488;DHT22;38546;48.170;11.724;2023-12-22T02:22:32;2.50;99.90
3488;DHT22;38546;48.170;11.724;2023-12-22T02:25:22;2.50;99.90
3488;DHT22;38546;48.170;11.724;2023-12-22T02:28:16;2.30;99.90
3488;DHT22;38546;48.170;11.724;2023-12-22T02:31:33;2.20;99.90
3488;DHT22;38546;48.170;11.724;2023-12-22T02:34:36;2.10;99.90
3488;DHT22;38546;48.170;11.724;2023-12-22T02:37:30;2.00;99.90
3488;DHT22;38546;48.170;11.724;2023-12-22T02:40:21;2.00;99.90
3488;DHT22;38546;48.170;11.724;2023-12-22T02:43:11;1.90;99.90
3488;DHT22;38546;48.170;11.724;2023-12-22T02:46:00;2.00;99.90
3488;DHT22;38546;48.170;11.724;2023-12-22T02:48:49;1.90;99.90
3488;DHT22;38546;48.170;11.724;2023-12-22T02:51:39;2.00;99.90
3488;DHT22;38546;48.170;11.724;2023-12-22T02:54:28;2.20;99.90
3488;DHT22;38546;48.170;11.724;2023-12-22T02:57:20;2.20;99.90
3488;DHT22;38546;48.170;11.724;2023-12-22T03:00:19;2.10;99.90
3488;DHT22;38546;48.170;11.724;2023-12-22T03:03:09;2.20;99.90
3488;DHT22;38546;48.170;11.724;2023-12-22T03:05:58;2.30;99.90
3488;DHT22;38546;48.170;11.724;2023-12-22T03:08:47;2.20;99.90
3488;DHT22;38546;48.170;11.724;2023-12-22T03:11:36;2.20;99.90
3488;DHT22;38546;48.170;11.724;2023-12-22T03:14:25;2.20;99.90
3488;DHT22;38546;48.170;11.724;2023-12-22T03:17:14;2.20;99.90
3488;DHT22;38546;48.170;11.724;2023-12-22T03:20:05;2.20;99.90
3488;DHT22;38546;48.170;11.724;2023-12-22T03:22:57;2.40;99.90
3488;DHT22;38546;48.170;11.724;2023-12-22T03:25:47;2.50;99.90
3488;DHT22;38546;48.170;11.724;2023-12-22T03:28:36;2.60;99.90
3488;DHT22;38546;48.170;11.724;2023-12-22T03:31:27;2.50;99.90
3488;DHT22;38546;48.170;11.724;2023-12-22T03:34:16;2.50;99.90
3488;DHT22;38546;48.170;11.724;2023-12-22T03:37:05;2.40;99.90
3488;DHT22;38546;48.170;11.724;2023-12-22T03:39:54;2.50;99.90
3488;DHT22;38546;48.170;11.724;2023-12-22T03:42:47;2.50;99.90
3488;DHT22;38546;48.170;11.724;2023-12-22T03:45:36;2.60;99.90
3488;DHT22;38546;48.170;11.724;2023-12-22T03:48:26;2.50;99.90
3488;DHT22;38546;48.170;11.724;2023-12-22T03:51:15;2.50;99.90
3488;DHT22;38546;48.170;11.724;2023-12-22T03:54:04;2.50;99.90
3488;DHT22;38546;48.170;11.724;2023-12-22T03:56:54;2.60;99.90
3488;DHT22;38546;48.170;11.724;2023-12-22T03:59:43;2.60;99.90
3488;DHT22;38546;48.170;11.724;2023-12-22T04:02:32;2.50;99.90
3488;DHT22;38546;48.170;11.724;2023-12-22T04:05:22;2.50;99.90
3488;DHT22;38546;48.170;11.724;2023-12-22T04:08:11;2.50;99.90
3488;DHT22;38546;48.170;11.724;2023-12-22T04:11:00;2.60;99.90
3488;DHT22;38546;48.170;11.724;2023-12-22T04:13:49;2.60;99.90
3488;DHT22;38546;48.170;11.724;2023-12-22T04:16:38;2.60;99.90
3488;DHT22;38546;48.170;11.724;2023-12-22T04:19:28;2.60;99.90
3488;DHT22;38546;48.170;11.724;2023-12-22T04:22:17;2.60;99.90
3488;DHT22;38546;48.170;11.724;2023-12-22T04:25:07;2.80;99.90
3488;DHT22;38546;48.170;11.724;2023-12-22T04:27:56;2.90;99.90
3488;DHT22;38546;48.170;11.724;2023-12-22T04:30:46;3.00;99.90
3488;DHT22;38546;48.170;11.724;2023-12-22T04:33:35;3.00;99.90
3488;DHT22;38546;48.170;11.724;2023-12-22T04:36:24;2.90;99.90
3488;DHT22;38546;48.170;11.724;2023-12-22T04:39:14;2.90;99.90
3488;DHT22;38546;48.170;11.724;2023-12-22T04:42:03;2.80;99.90
3488;DHT22;38546;48.170;11.724;2023-12-22T04:44:52;2.80;99.90
3488;DHT22;38546;48.170;11.724;2023-12-22T04:47:41;2.80;99.90
3488;DHT22;38546;48.170;11.724;2023-12-22T04:50:30;2.80;99.90
3488;DHT22;38546;48.170;11.724;2023-12-22T04:53:19;3.30;99.90
3488;DHT22;38546;48.170;11.724;2023-12-22T04:56:10;3.60;99.90
3488;DHT22;38546;48.170;11.724;2023-12-22T04:58:59;4.00;99.90
3488;DHT22;38546;48.170;11.724;2023-12-22T05:01:48;4.40;99.90
3488;DHT22;38546;48.170;11.724;2023-12-22T05:04:38;4.40;99.90
3488;DHT22;38546;48.170;11.724;2023-12-22T05:07:27;4.60;99.90
3488;DHT22;38546;48.170;11.724;2023-12-22T05:10:16;4.60;99.90
3488;DHT22;38546;48.170;11.724;2023-12-22T05:13:06;4.80;99.90
3488;DHT22;38546;48.170;11.724;2023-12-22T05:15:57;4.70;99.90
3488;DHT22;38546;48.170;11.724;2023-12-22T05:18:46;4.90;99.90
3488;DHT22;38546;48.170;11.724;2023-12-22T05:21:36;4.80;99.90
3488;DHT22;38546;48.170;11.724;2023-12-22T05:24:25;5.10;99.90
3488;DHT22;38546;48.170;11.724;2023-12-22T05:27:14;5.20;99.90
3488;DHT22;38546;48.170;11.724;2023-12-22T05:30:04;5.20;99.90
3488;DHT22;38546;48.170;11.724;2023-12-22T05:32:54;5.20;99.90
3488;DHT22;38546;48.170;11.724;2023-12-22T05:35:43;5.30;99.90
3488;DHT22;38546;48.170;11.724;2023-12-22T05:38:32;5.30;99.90
3488;DHT22;38546;48.170;11.724;2023-12-22T05:41:26;5.40;99.90
3488;DHT22;38546;48.170;11.724;2023-12-22T05:44:15;5.50;99.90
3488;DHT22;38546;48.170;11.724;2023-12-22T05:47:04;5.50;99.90
3488;DHT22;38546;48.170;11.724;2023-12-22T05:49:53;5.60;99.90
3488;DHT22;38546;48.170;11.724;2023-12-22T05:52:42;5.60;99.90
3488;DHT22;38546;48.170;11.724;2023-12-22T05:55:33;5.70;99.90
3488;DHT22;38546;48.170;11.724;2023-12-22T05:58:22;5.50;99.90
3488;DHT22;38546;48.170;11.724;2023-12-22T06:01:15;4.80;99.90
3488;DHT22;38546;48.170;11.724;2023-12-22T06:04:07;4.40;99.90
3488;DHT22;38546;48.170;11.724;2023-12-22T06:06:56;4.00;99.90
3488;DHT22;38546;48.170;11.724;2023-12-22T06:09:45;3.70;99.90
3488;DHT22;38546;48.170;11.724;2023-12-22T06:12:34;3.60;99.90
3488;DHT22;38546;48.170;11.724;2023-12-22T06:15:23;3.70;99.90
3488;DHT22;38546;48.170;11.724;2023-12-22T06:18:13;3.80;99.90
3488;DHT22;38546;48.170;11.724;2023-12-22T06:21:04;3.80;99.90
3488;DHT22;38546;48.170;11.724;2023-12-22T06:23:53;3.70;99.90
3488;DHT22;38546;48.170;11.724;2023-12-22T06:26:42;3.90;99.90
3488;DHT22;38546;48.170;11.724;2023-12-22T06:29:31;4.00;99.90
3488;DHT22;38546;48.170;11.724;2023-12-22T06:32:20;4.20;99.90
3488;DHT22;38546;48.170;11.724;2023-12-22T06:35:09;4.20;99.90
3488;DHT22;38546;48.170;11.724;2023-12-22T06:37:59;4.30;99.90
3488;DHT22;38546;48.170;11.724;2023-12-22T06:40:52;4.50;99.90
3488;DHT22;38546;48.170;11.724;2023-12-22T06:43:41;4.50;99.90
3488;DHT22;38546;48.170;11.724;2023-12-22T06:46:30;4.60;99.90
3488;DHT22;38546;48.170;11.724;2023-12-22T06:49:19;4.40;99.90
3488;DHT22;38546;48.170;11.724;2023-12-22T06:52:08;4.50;99.90
3488;DHT22;38546;48.170;11.724;2023-12-22T06:54:57;4.60;99.90
3488;DHT22;38546;48.170;11.724;2023-12-22T06:57:46;4.50;99.90
3488;DHT22;38546;48.170;11.724;2023-12-22T07:00:35;4.50;99.90
3488;DHT22;38546;48.170;11.724;2023-12-22T07:03:26;4.50;99.90
3488;DHT22;38546;48.170;11.724;2023-12-22T07:06:17;4.60;99.90
3488;DHT22;38546;48.170;11.724;2023-12-22T07:10:59;4.50;99.90
3488;DHT22;38546;48.170;11.724;2023-12-22T07:13:48;4.70;99.90
3488;DHT22;38546;48.170;11.724;2023-12-22T07:16:37;4.70;99.90
3488;DHT22;38546;48.170;11.724;2023-12-22T07:19:26;4.90;99.90
3488;DHT22;38546;48.170;11.724;2023-12-22T07:22:15;5.00;99.90
3488;DHT22;38546;48.170;11.724;2023-12-22T07:25:05;5.20;99.90
3488;DHT22;38546;48.170;11.724;2023-12-22T07:27:56;5.20;99.90
3488;DHT22;38546;48.170;11.724;2023-12-22T07:30:45;5.10;99.90
3488;DHT22;38546;48.170;11.724;2023-12-22T07:33:34;5.00;99.90
3488;DHT22;38546;48.170;11.724;2023-12-22T07:36:23;4.90;99.90
3488;DHT22;38546;48.170;11.724;2023-12-22T07:39:12;4.70;99.90
3488;DHT22;38546;48.170;11.724;2023-12-22T07:42:01;4.40;99.90
3488;DHT22;38546;48.170;11.724;2023-12-22T07:44:51;4.20;99.90
3488;DHT22;38546;48.170;11.724;2023-12-22T07:47:40;4.00;99.90
3488;DHT22;38546;48.170;11.724;2023-12-22T07:50:28;3.80;99.90
3488;DHT22;38546;48.170;11.724;2023-12-22T07:53:18;3.70;99.90
3488;DHT22;38546;48.170;11.724;2023-12-22T07:56:07;3.60;99.90
3488;DHT22;38546;48.170;11.724;2023-12-22T07:58:57;3.80;99.90
3488;DHT22;38546;48.170;11.724;2023-12-22T08:01:46;3.80;99.90
3488;DHT22;38546;48.170;11.724;2023-12-22T08:04:35;3.60;99.90
3488;DHT22;38546;48.170;11.724;2023-12-22T08:07:24;3.20;99.90
3488;DHT22;38546;48.170;11.724;2023-12-22T08:10:13;2.90;99.90
3488;DHT22;38546;48.170;11.724;2023-12-22T08:13:02;2.70;99.90
3488;DHT22;38546;48.170;11.724;2023-12-22T08:15:52;2.60;99.90
3488;DHT22;38546;48.170;11.724;2023-12-22T08:18:42;2.60;99.90
3488;DHT22;38546;48.170;11.724;2023-12-22T08:21:31;2.80;99.90
3488;DHT22;38546;48.170;11.724;2023-12-22T08:24:21;2.90;99.90
3488;DHT22;38546;48.170;11.724;2023-12-22T08:27:10;3.00;99.90
3488;DHT22;38546;48.170;11.724;2023-12-22T08:30:00;3.10;99.90
3488;DHT22;38546;48.170;11.724;2023-12-22T08:32:49;3.20;99.90
3488;DHT22;38546;48.170;11.724;2023-12-22T08:35:38;3.30;99.90
3488;DHT22;38546;48.170;11.724;2023-12-22T08:38:27;3.40;99.90
3488;DHT22;38546;48.170;11.724;2023-12-22T08:41:18;3.40;99.90
3488;DHT22;38546;48.170;11.724;2023-12-22T08:44:08;3.30;99.90
3488;DHT22;38546;48.170;11.724;2023-12-22T08:46:57;3.70;99.90
3488;DHT22;38546;48.170;11.724;2023-12-22T08:49:46;3.80;99.90
3488;DHT22;38546;48.170;11.724;2023-12-22T08:52:36;4.00;99.90
3488;DHT22;38546;48.170;11.724;2023-12-22T08:55:25;4.00;99.90
3488;DHT22;38546;48.170;11.724;2023-12-22T08:58:14;4.00;99.90
3488;DHT22;38546;48.170;11.724;2023-12-22T09:01:03;4.00;99.90
3488;DHT22;38546;48.170;11.724;2023-12-22T09:03:53;4.20;99.90
3488;DHT22;38546;48.170;11.724;2023-12-22T09:06:42;4.30;99.90
3488;DHT22;38546;48.170;11.724;2023-12-22T09:09:32;4.70;99.90
3488;DHT22;38546;48.170;11.724;2023-12-22T09:12:22;4.90;99.90
3488;DHT22;38546;48.170;11.724;2023-12-22T09:15:12;5.10;99.90
3488;DHT22;38546;48.170;11.724;2023-12-22T09:18:02;5.20;99.90
3488;DHT22;38546;48.170;11.724;2023-12-22T09:20:52;5.30;99.90
3488;DHT22;38546;48.170;11.724;2023-12-22T09:23:41;5.40;99.90
3488;DHT22;38546;48.170;11.724;2023-12-22T09:26:35;5.60;99.90
3488;DHT22;38546;48.170;11.724;2023-12-22T09:29:24;5.80;99.90
3488;DHT22;38546;48.170;11.724;2023-12-22T09:32:14;5.90;99.90
3488;DHT22;38546;48.170;11.724;2023-12-22T09:35:03;6.10;99.90
3488;DHT22;38546;48.170;11.724;2023-12-22T09:37:53;6.10;99.90
3488;DHT22;38546;48.170;11.724;2023-12-22T09:40:43;6.00;99.90
3488;DHT22;38546;48.170;11.724;2023-12-22T09:43:35;6.10;99.90
3488;DHT22;38546;48.170;11.724;2023-12-22T09:46:26;6.10;99.90
3488;DHT22;38546;48.170;11.724;2023-12-22T09:49:20;6.20;99.90
3488;DHT22;38546;48.170;11.724;2023-12-22T09:52:11;6.30;99.90
3488;DHT22;38546;48.170;11.724;2023-12-22T09:55:02;6.30;99.90
3488;DHT22;38546;48.170;11.724;2023-12-22T09:57:53;6.20;99.90
3488;DHT22;38546;48.170;11.724;2023-12-22T10:00:44;6.30;99.90
3488;DHT22;38546;48.170;11.724;2023-12-22T10:03:34;6.30;99.90
3488;DHT22;38546;48.170;11.724;2023-12-22T10:06:23;6.30;99.90
3488;DHT22;38546;48.170;11.724;2023-12-22T10:09:14;6.20;99.90
3488;DHT22;38546;48.170;11.724;2023-12-22T10:12:06;6.10;99.90
3488;DHT22;38546;48.170;11.724;2023-12-22T10:14:59;5.90;99.90
3488;DHT22;38546;48.170;11.724;2023-12-22T10:17:50;5.70;99.90
3488;DHT22;38546;48.170;11.724;2023-12-22T10:20:42;5.50;99.90
3488;DHT22;38546;48.170;11.724;2023-12-22T10:23:32;5.40;99.90
3488;DHT22;38546;48.170;11.724;2023-12-22T10:26:21;5.30;99.90
3488;DHT22;38546;48.170;11.724;2023-12-22T10:29:11;5.20;99.90
3488;DHT22;38546;48.170;11.724;2023-12-22T10:32:04;5.10;99.90
3488;DHT22;38546;48.170;11.724;2023-12-22T10:34:54;4.90;99.90
3488;DHT22;38546;48.170;11.724;2023-12-22T10:37:46;4.80;99.90
3488;DHT22;38546;48.170;11.724;2023-12-22T10:40:39;4.80;99.90
3488;DHT22;38546;48.170;11.724;2023-12-22T10:43:29;4.70;99.90
3488;DHT22;38546;48.170;11.724;2023-12-22T10:46:18;4.60;99.90
3488;DHT22;38546;48.170;11.724;2023-12-22T10:49:07;4.60;99.90
3488;DHT22;38546;48.170;11.724;2023-12-22T10:51:57;4.60;99.90
3488;DHT22;38546;48.170;11.724;2023-12-22T10:54:48;4.60;99.90
3488;DHT22;38546;48.170;11.724;2023-12-22T10:57:37;4.60;99.90
3488;DHT22;38546;48.170;11.724;2023-12-22T11:00:27;4.60;99.90
3488;DHT22;38546;48.170;11.724;2023-12-22T11:03:18;4.70;99.90
3488;DHT22;38546;48.170;11.724;2023-12-22T11:06:12;4.50;99.90
3488;DHT22;38546;48.170;11.724;2023-12-22T11:09:09;4.70;99.90
3488;DHT22;38546;48.170;11.724;2023-12-22T11:12:00;4.60;99.90
3488;DHT22;38546;48.170;11.724;2023-12-22T11:14:51;4.80;99.90
3488;DHT22;38546;48.170;11.724;2023-12-22T11:17:42;4.90;99.90
3488;DHT22;38546;48.170;11.724;2023-12-22T11:20:32;4.80;99.90
3488;DHT22;38546;48.170;11.724;2023-12-22T11:23:23;4.80;99.90
3488;DHT22;38546;48.170;11.724;2023-12-22T11:26:14;4.90;99.90
3488;DHT22;38546;48.170;11.724;2023-12-22T11:29:07;5.10;99.90
3488;DHT22;38546;48.170;11.724;2023-12-22T11:32:00;5.20;99.90
3488;DHT22;38546;48.170;11.724;2023-12-22T11:34:53;5.30;99.90
3488;DHT22;38546;48.170;11.724;2023-12-22T11:37:43;5.40;99.90
3488;DHT22;38546;48.170;11.724;2023-12-22T11:40:34;5.50;99.90
3488;DHT22;38546;48.170;11.724;2023-12-22T11:43:24;5.50;99.90
3488;DHT22;38546;48.170;11.724;2023-12-22T11:46:16;5.50;99.90
3488;DHT22;38546;48.170;11.724;2023-12-22T11:49:06;5.60;99.90
3488;DHT22;38546;48.170;11.724;2023-12-22T11:51:56;5.70;99.90
3488;DHT22;38546;48.170;11.724;2023-12-22T11:54:49;5.70;99.90
3488;DHT22;38546;48.170;11.724;2023-12-22T11:57:40;5.60;99.90
3488;DHT22;38546;48.170;11.724;2023-12-22T12:00:39;5.70;99.90
3488;DHT22;38546;48.170;11.724;2023-12-22T12:03:30;5.60;99.90
3488;DHT22;38546;48.170;11.724;2023-12-22T12:06:53;5.60;99.90
3488;DHT22;38546;48.170;11.724;2023-12-22T12:09:46;5.70;99.90
3488;DHT22;38546;48.170;11.724;2023-12-22T12:12:36;5.60;99.90
3488;DHT22;38546;48.170;11.724;2023-12-22T12:15:25;5.60;99.90
3488;DHT22;38546;48.170;11.724;2023-12-22T12:18:15;5.60;99.90
3488;DHT22;38546;48.170;11.724;2023-12-22T12:21:10;5.70;99.90
3488;DHT22;38546;48.170;11.724;2023-12-22T12:24:00;5.70;99.90
3488;DHT22;38546;48.170;11.724;2023-12-22T12:26:50;5.80;99.90
3488;DHT22;38546;48.170;11.724;2023-12-22T12:29:39;5.70;99.90
3488;DHT22;38546;48.170;11.724;2023-12-22T12:32:28;5.70;99.90
3488;DHT22;38546;48.170;11.724;2023-12-22T12:35:19;5.80;99.90
3488;DHT22;38546;48.170;11.724;2023-12-22T12:38:09;5.80;99.90
3488;DHT22;38546;48.170;11.724;2023-12-22T12:40:58;5.80;99.90
3488;DHT22;38546;48.170;11.724;2023-12-22T12:43:48;5.70;99.90
3488;DHT22;38546;48.170;11.724;2023-12-22T12:46:39;5.80;99.90
3488;DHT22;38546;48.170;11.724;2023-12-22T12:49:31;5.80;99.90
3488;DHT22;38546;48.170;11.724;2023-12-22T12:52:20;5.80;99.90
3488;DHT22;38546;48.170;11.724;2023-12-22T12:55:09;5.70;99.90
3488;DHT22;38546;48.170;11.724;2023-12-22T12:58:00;5.80;99.90
3488;DHT22;38546;48.170;11.724;2023-12-22T13:00:49;5.80;99.90
3488;DHT22;38546;48.170;11.724;2023-12-22T13:03:52;5.80;99.90
3488;DHT22;38546;48.170;11.724;2023-12-22T13:06:49;5.80;99.90
3488;DHT22;38546;48.170;11.724;2023-12-22T13:09:39;5.80;99.90
3488;DHT22;38546;48.170;11.724;2023-12-22T13:12:32;5.90;99.90
3488;DHT22;38546;48.170;11.724;2023-12-22T13:15:22;5.90;99.90
3488;DHT22;38546;48.170;11.724;2023-12-22T13:18:11;5.90;99.90
3488;DHT22;38546;48.170;11.724;2023-12-22T13:21:00;5.90;99.90
3488;DHT22;38546;48.170;11.724;2023-12-22T13:27:07;5.80;99.90
3488;DHT22;38546;48.170;11.724;2023-12-22T13:29:57;5.80;99.90
3488;DHT22;38546;48.170;11.724;2023-12-22T13:32:46;5.70;99.90
3488;DHT22;38546;48.170;11.724;2023-12-22T13:35:36;5.60;99.90
3488;DHT22;38546;48.170;11.724;2023-12-22T13:38:26;5.60;99.90
3488;DHT22;38546;48.170;11.724;2023-12-22T13:41:16;5.80;99.90
3488;DHT22;38546;48.170;11.724;2023-12-22T13:44:09;5.70;99.90
3488;DHT22;38546;48.170;11.724;2023-12-22T13:47:03;5.70;99.90
3488;DHT22;38546;48.170;11.724;2023-12-22T13:49:53;5.70;99.90
3488;DHT22;38546;48.170;11.724;2023-12-22T13:52:43;5.70;99.90
3488;DHT22;38546;48.170;11.724;2023-12-22T13:55:33;5.70;99.90
3488;DHT22;38546;48.170;11.724;2023-12-22T13:58:26;5.70;99.90
3488;DHT22;38546;48.170;11.724;2023-12-22T14:01:16;5.70;99.90
3488;DHT22;38546;48.170;11.724;2023-12-22T14:04:06;5.70;99.90
3488;DHT22;38546;48.170;11.724;2023-12-22T14:06:57;5.80;99.90
3488;DHT22;38546;48.170;11.724;2023-12-22T14:09:48;5.90;99.90
3488;DHT22;38546;48.170;11.724;2023-12-22T14:12:41;5.90;99.90
3488;DHT22;38546;48.170;11.724;2023-12-22T14:15:31;5.80;99.90
3488;DHT22;38546;48.170;11.724;2023-12-22T14:18:20;5.80;99.90
3488;DHT22;38546;48.170;11.724;2023-12-22T14:21:09;5.80;99.90
3488;DHT22;38546;48.170;11.724;2023-12-22T14:23:59;5.80;99.90
3488;DHT22;38546;48.170;11.724;2023-12-22T14:26:53;5.80;99.90
3488;DHT22;38546;48.170;11.724;2023-12-22T14:29:43;5.90;99.90
3488;DHT22;38546;48.170;11.724;2023-12-22T14:32:36;6.10;99.90
3488;DHT22;38546;48.170;11.724;2023-12-22T14:35:25;6.00;99.90
3488;DHT22;38546;48.170;11.724;2023-12-22T14:38:14;6.00;99.90
3488;DHT22;38546;48.170;11.724;2023-12-22T14:41:03;6.10;99.90
3488;DHT22;38546;48.170;11.724;2023-12-22T14:43:53;6.20;99.90
3488;DHT22;38546;48.170;11.724;2023-12-22T14:46:42;6.10;99.90
3488;DHT22;38546;48.170;11.724;2023-12-22T14:49:32;6.10;99.90
3488;DHT22;38546;48.170;11.724;2023-12-22T14:52:21;6.20;99.90
3488;DHT22;38546;48.170;11.724;2023-12-22T14:55:10;6.10;99.90
3488;DHT22;38546;48.170;11.724;2023-12-22T14:58:00;6.20;99.90
3488;DHT22;38546;48.170;11.724;2023-12-22T15:00:49;6.30;99.90
3488;DHT22;38546;48.170;11.724;2023-12-22T15:03:38;6.30;99.90
3488;DHT22;38546;48.170;11.724;2023-12-22T15:06:28;6.30;99.90
3488;DHT22;38546;48.170;11.724;2023-12-22T15:09:18;6.20;99.90
3488;DHT22;38546;48.170;11.724;2023-12-22T15:12:08;6.30;99.90
3488;DHT22;38546;48.170;11.724;2023-12-22T15:14:57;6.30;99.90
3488;DHT22;38546;48.170;11.724;2023-12-22T15:17:46;6.40;99.90
3488;DHT22;38546;48.170;11.724;2023-12-22T15:20:35;6.40;99.90
3488;DHT22;38546;48.170;11.724;2023-12-22T15:23:24;6.40;99.90
3488;DHT22;38546;48.170;11.724;2023-12-22T15:26:22;6.50;99.90
3488;DHT22;38546;48.170;11.724;2023-12-22T15:29:11;6.50;99.90
3488;DHT22;38546;48.170;11.724;2023-12-22T15:32:00;6.40;99.90
3488;DHT22;38546;48.170;11.724;2023-12-22T15:34:50;6.30;99.90
3488;DHT22;38546;48.170;11.724;2023-12-22T15:37:39;6.30;99.90
3488;DHT22;38546;48.170;11.724;2023-12-22T15:40:29;6.30;99.90
3488;DHT22;38546;48.170;11.724;2023-12-22T15:43:19;6.50;99.90
3488;DHT22;38546;48.170;11.724;2023-12-22T15:46:09;6.40;99.90
3488;DHT22;38546;48.170;11.724;2023-12-22T15:48:58;6.50;99.90
3488;DHT22;38546;48.170;11.724;2023-12-22T15:51:47;6.50;99.90
3488;DHT22;38546;48.170;11.724;2023-12-22T15:54:38;6.60;99.90
3488;DHT22;38546;48.170;11.724;2023-12-22T15:57:28;6.60;99.90
3488;DHT22;38546;48.170;11.724;2023-12-22T16:00:18;6.60;99.90
3488;DHT22;38546;48.170;11.724;2023-12-22T16:03:07;6.70;99.90
3488;DHT22;38546;48.170;11.724;2023-12-22T16:05:57;6.60;99.90
3488;DHT22;38546;48.170;11.724;2023-12-22T16:08:46;6.60;99.90
3488;DHT22;38546;48.170;11.724;2023-12-22T16:11:35;6.70;99.90
3488;DHT22;38546;48.170;11.724;2023-12-22T16:14:24;6.70;99.90
3488;DHT22;38546;48.170;11.724;2023-12-22T16:17:13;6.70;99.90
3488;DHT22;38546;48.170;11.724;2023-12-22T16:20:04;6.70;99.90
3488;DHT22;38546;48.170;11.724;2023-12-22T16:22:54;6.70;99.90
3488;DHT22;38546;48.170;11.724;2023-12-22T16:25:43;6.80;99.90
3488;DHT22;38546;48.170;11.724;2023-12-22T16:28:32;6.90;99.90
3488;DHT22;38546;48.170;11.724;2023-12-22T16:31:21;6.90;99.90
3488;DHT22;38546;48.170;11.724;2023-12-22T16:34:10;7.00;99.90
3488;DHT22;38546;48.170;11.724;2023-12-22T16:37:02;6.90;99.90
3488;DHT22;38546;48.170;11.724;2023-12-22T16:39:52;6.90;99.90
3488;DHT22;38546;48.170;11.724;2023-12-22T16:42:42;7.00;99.90
3488;DHT22;38546;48.170;11.724;2023-12-22T16:45:32;7.00;99.90
3488;DHT22;38546;48.170;11.724;2023-12-22T16:48:20;7.10;99.90
3488;DHT22;38546;48.170;11.724;2023-12-22T16:51:09;7.10;99.90
3488;DHT22;38546;48.170;11.724;2023-12-22T16:53:58;7.10;99.90
3488;DHT22;38546;48.170;11.724;2023-12-22T16:56:48;7.10;99.90
3488;DHT22;38546;48.170;11.724;2023-12-22T16:59:37;7.20;99.90
3488;DHT22;38546;48.170;11.724;2023-12-22T17:02:26;7.30;99.90
3488;DHT22;38546;48.170;11.724;2023-12-22T17:05:15;7.30;99.90
3488;DHT22;38546;48.170;11.724;2023-12-22T17:08:05;7.20;99.90
3488;DHT22;38546;48.170;11.724;2023-12-22T17:10:54;7.30;99.90
3488;DHT22;38546;48.170;11.724;2023-12-22T17:13:43;7.20;99.90
3488;DHT22;38546;48.170;11.724;2023-12-22T17:16:32;7.20;99.90
3488;DHT22;38546;48.170;11.724;2023-12-22T17:19:21;7.30;99.90
3488;DHT22;38546;48.170;11.724;2023-12-22T17:22:10;7.20;99.90
3488;DHT22;38546;48.170;11.724;2023-12-22T17:24:59;7.10;99.90
3488;DHT22;38546;48.170;11.724;2023-12-22T17:27:48;7.30;99.90
3488;DHT22;38546;48.170;11.724;2023-12-22T17:30:37;7.30;99.90
3488;DHT22;38546;48.170;11.724;2023-12-22T17:33:27;7.30;99.90
3488;DHT22;38546;48.170;11.724;2023-12-22T17:36:16;7.30;99.90
3488;DHT22;38546;48.170;11.724;2023-12-22T17:39:06;7.20;99.90
3488;DHT22;38546;48.170;11.724;2023-12-22T17:41:55;7.30;99.90
3488;DHT22;38546;48.170;11.724;2023-12-22T17:44:44;7.20;99.90
3488;DHT22;38546;48.170;11.724;2023-12-22T17:47:33;7.30;99.90
3488;DHT22;38546;48.170;11.724;2023-12-22T17:50:22;7.30;99.90
3488;DHT22;38546;48.170;11.724;2023-12-22T17:53:12;7.30;99.90
3488;DHT22;38546;48.170;11.724;2023-12-22T17:56:01;7.30;99.90
3488;DHT22;38546;48.170;11.724;2023-12-22T17:58:49;7.30;99.90
3488;DHT22;38546;48.170;11.724;2023-12-22T18:01:41;7.30;99.90
3488;DHT22;38546;48.170;11.724;2023-12-22T18:04:30;7.30;99.90
3488;DHT22;38546;48.170;11.724;2023-12-22T18:07:19;7.30;99.90
3488;DHT22;38546;48.170;11.724;2023-12-22T18:10:08;7.40;99.90
3488;DHT22;38546;48.170;11.724;2023-12-22T18:12:59;7.30;99.90
3488;DHT22;38546;48.170;11.724;2023-12-22T18:15:48;7.30;99.90
3488;DHT22;38546;48.170;11.724;2023-12-22T18:18:36;7.40;99.90